sensor_id;sensor_type;location;lat;lon;timestamp;P1;durP1;ratioP1;P2;durP2;ratioP2
72761;SDS011;60886;55.034;73.150;2023-03-24T00:02:20;7.53;;;2.20;;
72761;SDS011;60886;55.034;73.150;2023-03-24T00:05:32;9.25;;;2.63;;
72761;SDS011;60886;55.034;73.150;2023-03-24T00:08:34;7.72;;;2.20;;
72761;SDS011;60886;55.034;73.150;2023-03-24T00:11:36;10.50;;;2.57;;
72761;SDS011;60886;55.034;73.150;2023-03-24T00:14:38;8.48;;;2.55;;
72761;SDS011;60886;55.034;73.150;2023-03-24T00:17:40;9.83;;;2.37;;
72761;SDS011;60886;55.034;73.150;2023-03-24T00:20:52;7.97;;;2.10;;
72761;SDS011;60886;55.034;73.150;2023-03-24T00:23:58;7.18;;;2.28;;
72761;SDS011;60886;55.034;73.150;2023-03-24T00:27:01;11.70;;;4.23;;
72761;SDS011;60886;55.034;73.150;2023-03-24T00:30:11;11.93;;;4.03;;
72761;SDS011;60886;55.034;73.150;2023-03-24T00:33:13;14.57;;;4.60;;
72761;SDS011;60886;55.034;73.150;2023-03-24T00:36:14;15.13;;;5.30;;
72761;SDS011;60886;55.034;73.150;2023-03-24T00:39:18;15.52;;;4.65;;
72761;SDS011;60886;55.034;73.150;2023-03-24T00:42:20;9.70;;;3.27;;
72761;SDS011;60886;55.034;73.150;2023-03-24T00:45:22;9.02;;;2.90;;
72761;SDS011;60886;55.034;73.150;2023-03-24T00:48:23;7.03;;;2.05;;
72761;SDS011;60886;55.034;73.150;2023-03-24T00:51:25;7.40;;;2.27;;
72761;SDS011;60886;55.034;73.150;2023-03-24T00:54:27;7.80;;;2.08;;
72761;SDS011;60886;55.034;73.150;2023-03-24T00:57:31;7.23;;;1.87;;
72761;SDS011;60886;55.034;73.150;2023-03-24T01:00:36;8.75;;;2.40;;
72761;SDS011;60886;55.034;73.150;2023-03-24T01:03:52;7.73;;;2.13;;
72761;SDS011;60886;55.034;73.150;2023-03-24T01:06:54;7.93;;;2.30;;
72761;SDS011;60886;55.034;73.150;2023-03-24T01:09:58;6.78;;;2.40;;
72761;SDS011;60886;55.034;73.150;2023-03-24T01:13:03;7.80;;;2.40;;
72761;SDS011;60886;55.034;73.150;2023-03-24T01:16:05;7.43;;;2.20;;
72761;SDS011;60886;55.034;73.150;2023-03-24T01:19:17;7.30;;;2.20;;
72761;SDS011;60886;55.034;73.150;2023-03-24T01:22:19;7.55;;;1.90;;
72761;SDS011;60886;55.034;73.150;2023-03-24T01:25:21;9.40;;;2.60;;
72761;SDS011;60886;55.034;73.150;2023-03-24T01:28:29;9.13;;;2.97;;
72761;SDS011;60886;55.034;73.150;2023-03-24T01:31:39;8.98;;;3.17;;
72761;SDS011;60886;55.034;73.150;2023-03-24T01:34:50;9.57;;;2.80;;
72761;SDS011;60886;55.034;73.150;2023-03-24T01:37:52;9.52;;;2.90;;
72761;SDS011;60886;55.034;73.150;2023-03-24T01:40:53;8.98;;;2.90;;
72761;SDS011;60886;55.034;73.150;2023-03-24T01:43:55;10.00;;;2.80;;
72761;SDS011;60886;55.034;73.150;2023-03-24T01:46:57;7.50;;;2.35;;
72761;SDS011;60886;55.034;73.150;2023-03-24T01:50:00;7.05;;;2.00;;
72761;SDS011;60886;55.034;73.150;2023-03-24T01:53:04;7.13;;;2.10;;
72761;SDS011;60886;55.034;73.150;2023-03-24T01:56:07;7.47;;;1.83;;
72761;SDS011;60886;55.034;73.150;2023-03-24T01:59:17;9.83;;;2.40;;
72761;SDS011;60886;55.034;73.150;2023-03-24T02:03:28;9.30;;;2.40;;
72761;SDS011;60886;55.034;73.150;2023-03-24T02:06:22;9.35;;;2.13;;
72761;SDS011;60886;55.034;73.150;2023-03-24T02:09:27;7.38;;;1.92;;
72761;SDS011;60886;55.034;73.150;2023-03-24T02:12:29;8.40;;;2.40;;
72761;SDS011;60886;55.034;73.150;2023-03-24T02:15:33;8.13;;;2.33;;
72761;SDS011;60886;55.034;73.150;2023-03-24T02:21:58;6.90;;;2.05;;
72761;SDS011;60886;55.034;73.150;2023-03-24T02:28:49;8.63;;;2.28;;
72761;SDS011;60886;55.034;73.150;2023-03-24T02:35:48;6.20;;;1.80;;
72761;SDS011;60886;55.034;73.150;2023-03-24T02:42:19;8.07;;;2.05;;
72761;SDS011;60886;55.034;73.150;2023-03-24T02:45:25;6.53;;;2.27;;
72761;SDS011;60886;55.034;73.150;2023-03-24T02:52:03;7.93;;;2.10;;
72761;SDS011;60886;55.034;73.150;2023-03-24T02:59:05;7.75;;;2.03;;
72761;SDS011;60886;55.034;73.150;2023-03-24T03:02:21;7.27;;;2.20;;
72761;SDS011;60886;55.034;73.150;2023-03-24T03:05:38;6.47;;;2.10;;
72761;SDS011;60886;55.034;73.150;2023-03-24T03:08:49;7.53;;;2.15;;
72761;SDS011;60886;55.034;73.150;2023-03-24T03:11:52;7.90;;;2.00;;
72761;SDS011;60886;55.034;73.150;2023-03-24T03:15:13;6.61;;;1.92;;
72761;SDS011;60886;55.034;73.150;2023-03-24T03:18:26;9.45;;;2.13;;
72761;SDS011;60886;55.034;73.150;2023-03-24T03:21:49;7.30;;;2.05;;
72761;SDS011;60886;55.034;73.150;2023-03-24T03:24:54;7.65;;;2.08;;
72761;SDS011;60886;55.034;73.150;2023-03-24T03:27:58;8.10;;;1.70;;
72761;SDS011;60886;55.034;73.150;2023-03-24T03:31:03;6.97;;;1.83;;
72761;SDS011;60886;55.034;73.150;2023-03-24T03:40:37;7.00;;;1.90;;
72761;SDS011;60886;55.034;73.150;2023-03-24T03:43:50;6.35;;;1.95;;
72761;SDS011;60886;55.034;73.150;2023-03-24T03:46:52;5.10;;;1.53;;
72761;SDS011;60886;55.034;73.150;2023-03-24T03:50:11;6.85;;;1.70;;
72761;SDS011;60886;55.034;73.150;2023-03-24T03:53:13;6.85;;;1.80;;
72761;SDS011;60886;55.034;73.150;2023-03-24T03:56:19;7.63;;;1.85;;
72761;SDS011;60886;55.034;73.150;2023-03-24T03:59:50;7.23;;;1.63;;
72761;SDS011;60886;55.034;73.150;2023-03-24T04:12:34;8.53;;;2.33;;
72761;SDS011;60886;55.034;73.150;2023-03-24T04:16:13;8.88;;;2.70;;
72761;SDS011;60886;55.034;73.150;2023-03-24T04:23:04;7.18;;;2.38;;
72761;SDS011;60886;55.034;73.150;2023-03-24T04:26:27;7.32;;;2.38;;
72761;SDS011;60886;55.034;73.150;2023-03-24T04:29:37;8.95;;;2.60;;
72761;SDS011;60886;55.034;73.150;2023-03-24T04:33:13;7.43;;;2.47;;
72761;SDS011;60886;55.034;73.150;2023-03-24T04:36:40;8.07;;;2.42;;
72761;SDS011;60886;55.034;73.150;2023-03-24T04:40:15;12.31;;;4.51;;
72761;SDS011;60886;55.034;73.150;2023-03-24T04:43:19;8.90;;;2.58;;
72761;SDS011;60886;55.034;73.150;2023-03-24T04:46:25;8.53;;;2.47;;
72761;SDS011;60886;55.034;73.150;2023-03-24T04:49:38;9.02;;;2.63;;
72761;SDS011;60886;55.034;73.150;2023-03-24T04:52:40;8.23;;;2.40;;
72761;SDS011;60886;55.034;73.150;2023-03-24T04:55:49;7.10;;;2.60;;
72761;SDS011;60886;55.034;73.150;2023-03-24T04:59:00;7.60;;;2.50;;
72761;SDS011;60886;55.034;73.150;2023-03-24T05:02:02;6.97;;;2.38;;
72761;SDS011;60886;55.034;73.150;2023-03-24T05:05:29;9.30;;;2.47;;
72761;SDS011;60886;55.034;73.150;2023-03-24T05:08:31;7.78;;;2.30;;
72761;SDS011;60886;55.034;73.150;2023-03-24T05:11:33;8.17;;;2.80;;
72761;SDS011;60886;55.034;73.150;2023-03-24T05:14:40;8.07;;;2.47;;
72761;SDS011;60886;55.034;73.150;2023-03-24T05:17:45;7.35;;;2.22;;
72761;SDS011;60886;55.034;73.150;2023-03-24T05:20:58;7.70;;;2.60;;
72761;SDS011;60886;55.034;73.150;2023-03-24T05:24:01;8.80;;;2.60;;
72761;SDS011;60886;55.034;73.150;2023-03-24T05:27:02;6.32;;;2.40;;
72761;SDS011;60886;55.034;73.150;2023-03-24T05:30:11;7.38;;;2.40;;
72761;SDS011;60886;55.034;73.150;2023-03-24T05:33:19;9.37;;;2.60;;
72761;SDS011;60886;55.034;73.150;2023-03-24T05:36:21;8.10;;;2.70;;
72761;SDS011;60886;55.034;73.150;2023-03-24T05:39:31;7.35;;;2.60;;
72761;SDS011;60886;55.034;73.150;2023-03-24T05:42:57;7.70;;;2.22;;
72761;SDS011;60886;55.034;73.150;2023-03-24T05:46:03;9.43;;;2.83;;
72761;SDS011;60886;55.034;73.150;2023-03-24T05:49:07;8.30;;;2.50;;
72761;SDS011;60886;55.034;73.150;2023-03-24T05:52:23;7.30;;;2.57;;
72761;SDS011;60886;55.034;73.150;2023-03-24T05:55:32;8.30;;;2.42;;
72761;SDS011;60886;55.034;73.150;2023-03-24T05:58:45;6.50;;;2.20;;
72761;SDS011;60886;55.034;73.150;2023-03-24T06:01:46;6.43;;;2.00;;
72761;SDS011;60886;55.034;73.150;2023-03-24T06:05:11;8.00;;;2.38;;
72761;SDS011;60886;55.034;73.150;2023-03-24T06:08:13;6.88;;;2.42;;
72761;SDS011;60886;55.034;73.150;2023-03-24T06:11:14;6.78;;;2.33;;
72761;SDS011;60886;55.034;73.150;2023-03-24T06:14:29;7.07;;;2.53;;
72761;SDS011;60886;55.034;73.150;2023-03-24T06:17:44;9.25;;;2.38;;
72761;SDS011;60886;55.034;73.150;2023-03-24T06:20:58;6.97;;;2.30;;
72761;SDS011;60886;55.034;73.150;2023-03-24T06:24:03;6.93;;;2.35;;
72761;SDS011;60886;55.034;73.150;2023-03-24T06:27:06;6.80;;;2.23;;
72761;SDS011;60886;55.034;73.150;2023-03-24T06:30:11;7.25;;;1.90;;
72761;SDS011;60886;55.034;73.150;2023-03-24T06:33:15;7.45;;;2.17;;
72761;SDS011;60886;55.034;73.150;2023-03-24T06:36:18;5.50;;;1.47;;
72761;SDS011;60886;55.034;73.150;2023-03-24T06:39:20;6.68;;;2.17;;
72761;SDS011;60886;55.034;73.150;2023-03-24T06:42:23;9.07;;;2.40;;
72761;SDS011;60886;55.034;73.150;2023-03-24T06:45:25;7.63;;;2.50;;
72761;SDS011;60886;55.034;73.150;2023-03-24T06:48:28;7.15;;;2.20;;
72761;SDS011;60886;55.034;73.150;2023-03-24T06:51:35;7.27;;;2.50;;
72761;SDS011;60886;55.034;73.150;2023-03-24T06:54:37;8.57;;;2.25;;
72761;SDS011;60886;55.034;73.150;2023-03-24T06:57:39;6.70;;;2.40;;
72761;SDS011;60886;55.034;73.150;2023-03-24T07:01:00;8.53;;;2.63;;
72761;SDS011;60886;55.034;73.150;2023-03-24T07:04:16;6.93;;;2.00;;
72761;SDS011;60886;55.034;73.150;2023-03-24T07:07:26;6.83;;;2.20;;
72761;SDS011;60886;55.034;73.150;2023-03-24T07:10:47;7.63;;;2.38;;
72761;SDS011;60886;55.034;73.150;2023-03-24T07:13:49;7.43;;;2.10;;
72761;SDS011;60886;55.034;73.150;2023-03-24T07:16:52;7.93;;;2.20;;
72761;SDS011;60886;55.034;73.150;2023-03-24T07:20:10;6.82;;;2.05;;
72761;SDS011;60886;55.034;73.150;2023-03-24T07:23:15;6.90;;;2.03;;
72761;SDS011;60886;55.034;73.150;2023-03-24T07:26:35;7.90;;;2.40;;
72761;SDS011;60886;55.034;73.150;2023-03-24T07:29:58;8.88;;;2.28;;
72761;SDS011;60886;55.034;73.150;2023-03-24T07:33:11;6.40;;;2.00;;
72761;SDS011;60886;55.034;73.150;2023-03-24T07:36:13;7.13;;;2.10;;
72761;SDS011;60886;55.034;73.150;2023-03-24T07:39:23;5.93;;;1.80;;
72761;SDS011;60886;55.034;73.150;2023-03-24T07:42:24;6.85;;;1.92;;
72761;SDS011;60886;55.034;73.150;2023-03-24T07:45:49;5.75;;;1.98;;
72761;SDS011;60886;55.034;73.150;2023-03-24T07:48:51;9.88;;;2.53;;
72761;SDS011;60886;55.034;73.150;2023-03-24T07:51:53;8.27;;;2.40;;
72761;SDS011;60886;55.034;73.150;2023-03-24T07:55:11;9.60;;;2.63;;
72761;SDS011;60886;55.034;73.150;2023-03-24T07:58:24;7.35;;;2.42;;
72761;SDS011;60886;55.034;73.150;2023-03-24T08:01:48;7.17;;;2.00;;
72761;SDS011;60886;55.034;73.150;2023-03-24T08:04:51;5.50;;;1.65;;
72761;SDS011;60886;55.034;73.150;2023-03-24T08:08:14;5.78;;;1.50;;
72761;SDS011;60886;55.034;73.150;2023-03-24T08:11:16;6.17;;;1.80;;
72761;SDS011;60886;55.034;73.150;2023-03-24T08:14:17;6.47;;;1.75;;
72761;SDS011;60886;55.034;73.150;2023-03-24T08:17:19;6.43;;;1.70;;
72761;SDS011;60886;55.034;73.150;2023-03-24T08:20:20;5.77;;;1.70;;
72761;SDS011;60886;55.034;73.150;2023-03-24T08:23:24;6.00;;;1.80;;
72761;SDS011;60886;55.034;73.150;2023-03-24T08:26:25;6.50;;;1.50;;
72761;SDS011;60886;55.034;73.150;2023-03-24T08:29:32;6.30;;;1.73;;
72761;SDS011;60886;55.034;73.150;2023-03-24T08:32:45;6.47;;;1.48;;
72761;SDS011;60886;55.034;73.150;2023-03-24T08:35:48;6.38;;;1.73;;
72761;SDS011;60886;55.034;73.150;2023-03-24T08:38:54;7.00;;;1.90;;
72761;SDS011;60886;55.034;73.150;2023-03-24T08:41:56;6.07;;;1.77;;
72761;SDS011;60886;55.034;73.150;2023-03-24T08:44:58;5.95;;;1.60;;
72761;SDS011;60886;55.034;73.150;2023-03-24T08:48:00;6.43;;;1.70;;
72761;SDS011;60886;55.034;73.150;2023-03-24T08:51:13;7.03;;;1.80;;
72761;SDS011;60886;55.034;73.150;2023-03-24T08:54:16;6.55;;;1.70;;
72761;SDS011;60886;55.034;73.150;2023-03-24T08:57:20;7.43;;;1.70;;
72761;SDS011;60886;55.034;73.150;2023-03-24T09:00:22;8.10;;;2.27;;
72761;SDS011;60886;55.034;73.150;2023-03-24T09:03:23;6.55;;;1.83;;
72761;SDS011;60886;55.034;73.150;2023-03-24T09:06:25;7.25;;;1.92;;
72761;SDS011;60886;55.034;73.150;2023-03-24T09:09:27;6.55;;;1.80;;
72761;SDS011;60886;55.034;73.150;2023-03-24T09:12:29;6.57;;;1.93;;
72761;SDS011;60886;55.034;73.150;2023-03-24T09:15:30;6.00;;;1.70;;
72761;SDS011;60886;55.034;73.150;2023-03-24T09:18:32;4.75;;;1.40;;
72761;SDS011;60886;55.034;73.150;2023-03-24T09:21:33;8.17;;;3.10;;
72761;SDS011;60886;55.034;73.150;2023-03-24T09:24:35;5.78;;;1.88;;
72761;SDS011;60886;55.034;73.150;2023-03-24T09:27:37;5.50;;;1.70;;
72761;SDS011;60886;55.034;73.150;2023-03-24T09:30:39;6.70;;;1.83;;
72761;SDS011;60886;55.034;73.150;2023-03-24T09:33:41;6.50;;;1.73;;
72761;SDS011;60886;55.034;73.150;2023-03-24T09:36:42;6.72;;;1.90;;
72761;SDS011;60886;55.034;73.150;2023-03-24T09:39:43;6.57;;;1.70;;
72761;SDS011;60886;55.034;73.150;2023-03-24T09:42:45;6.03;;;1.67;;
72761;SDS011;60886;55.034;73.150;2023-03-24T09:45:55;5.30;;;1.50;;
72761;SDS011;60886;55.034;73.150;2023-03-24T09:49:00;7.60;;;2.22;;
72761;SDS011;60886;55.034;73.150;2023-03-24T09:52:06;7.13;;;2.10;;
72761;SDS011;60886;55.034;73.150;2023-03-24T09:55:12;6.02;;;1.82;;
72761;SDS011;60886;55.034;73.150;2023-03-24T09:58:21;7.20;;;2.17;;
72761;SDS011;60886;55.034;73.150;2023-03-24T10:01:25;8.43;;;2.10;;
72761;SDS011;60886;55.034;73.150;2023-03-24T10:04:27;7.20;;;1.97;;
72761;SDS011;60886;55.034;73.150;2023-03-24T10:07:33;8.35;;;2.17;;
72761;SDS011;60886;55.034;73.150;2023-03-24T10:10:47;7.65;;;1.92;;
72761;SDS011;60886;55.034;73.150;2023-03-24T10:20:58;7.77;;;2.40;;
72761;SDS011;60886;55.034;73.150;2023-03-24T10:27:31;5.87;;;1.80;;
72761;SDS011;60886;55.034;73.150;2023-03-24T10:30:34;7.10;;;1.70;;
72761;SDS011;60886;55.034;73.150;2023-03-24T10:33:50;7.07;;;2.00;;
72761;SDS011;60886;55.034;73.150;2023-03-24T10:36:54;7.00;;;2.00;;
72761;SDS011;60886;55.034;73.150;2023-03-24T10:39:59;5.97;;;1.70;;
72761;SDS011;60886;55.034;73.150;2023-03-24T10:43:01;7.18;;;1.90;;
72761;SDS011;60886;55.034;73.150;2023-03-24T10:46:04;5.50;;;1.75;;
72761;SDS011;60886;55.034;73.150;2023-03-24T10:52:14;8.77;;;2.10;;
72761;SDS011;60886;55.034;73.150;2023-03-24T10:55:17;9.00;;;2.40;;
72761;SDS011;60886;55.034;73.150;2023-03-24T11:01:27;7.27;;;2.20;;
72761;SDS011;60886;55.034;73.150;2023-03-24T11:04:30;7.65;;;2.10;;
72761;SDS011;60886;55.034;73.150;2023-03-24T11:07:51;7.30;;;2.08;;
72761;SDS011;60886;55.034;73.150;2023-03-24T11:10:54;6.80;;;2.00;;
72761;SDS011;60886;55.034;73.150;2023-03-24T11:13:57;6.35;;;1.85;;
72761;SDS011;60886;55.034;73.150;2023-03-24T11:17:10;7.43;;;2.03;;
72761;SDS011;60886;55.034;73.150;2023-03-24T11:20:19;6.55;;;2.26;;
72761;SDS011;60886;55.034;73.150;2023-03-24T11:23:31;6.07;;;2.10;;
72761;SDS011;60886;55.034;73.150;2023-03-24T11:26:38;7.33;;;2.07;;
72761;SDS011;60886;55.034;73.150;2023-03-24T11:29:40;9.80;;;2.07;;
72761;SDS011;60886;55.034;73.150;2023-03-24T11:32:46;8.50;;;2.10;;
72761;SDS011;60886;55.034;73.150;2023-03-24T11:35:48;6.18;;;2.10;;
72761;SDS011;60886;55.034;73.150;2023-03-24T11:38:59;6.57;;;2.13;;
72761;SDS011;60886;55.034;73.150;2023-03-24T11:45:45;6.72;;;2.30;;
72761;SDS011;60886;55.034;73.150;2023-03-24T11:48:49;7.10;;;2.40;;
72761;SDS011;60886;55.034;73.150;2023-03-24T11:51:53;6.70;;;2.40;;
72761;SDS011;60886;55.034;73.150;2023-03-24T11:54:55;7.97;;;2.63;;
72761;SDS011;60886;55.034;73.150;2023-03-24T12:04:28;7.30;;;2.47;;
72761;SDS011;60886;55.034;73.150;2023-03-24T12:11:30;9.03;;;2.20;;
72761;SDS011;60886;55.034;73.150;2023-03-24T12:14:43;8.20;;;2.20;;
72761;SDS011;60886;55.034;73.150;2023-03-24T12:38:14;8.40;;;2.42;;
72761;SDS011;60886;55.034;73.150;2023-03-24T12:41:37;6.68;;;2.38;;
72761;SDS011;60886;55.034;73.150;2023-03-24T12:48:05;8.98;;;2.63;;
72761;SDS011;60886;55.034;73.150;2023-03-24T12:51:30;6.47;;;1.87;;
72761;SDS011;60886;55.034;73.150;2023-03-24T12:58:07;6.43;;;2.20;;
72761;SDS011;60886;55.034;73.150;2023-03-24T13:01:24;7.35;;;2.83;;
72761;SDS011;60886;55.034;73.150;2023-03-24T13:04:48;7.85;;;2.58;;
72761;SDS011;60886;55.034;73.150;2023-03-24T13:07:54;8.32;;;2.60;;
72761;SDS011;60886;55.034;73.150;2023-03-24T13:11:06;8.20;;;3.10;;
72761;SDS011;60886;55.034;73.150;2023-03-24T13:14:14;11.18;;;3.25;;
72761;SDS011;60886;55.034;73.150;2023-03-24T13:17:27;7.80;;;3.03;;
72761;SDS011;60886;55.034;73.150;2023-03-24T13:27:23;11.80;;;3.50;;
72761;SDS011;60886;55.034;73.150;2023-03-24T13:30:35;8.57;;;2.80;;
72761;SDS011;60886;55.034;73.150;2023-03-24T13:33:40;9.18;;;3.25;;
72761;SDS011;60886;55.034;73.150;2023-03-24T13:36:45;7.87;;;2.70;;
72761;SDS011;60886;55.034;73.150;2023-03-24T13:39:52;8.23;;;2.83;;
72761;SDS011;60886;55.034;73.150;2023-03-24T13:42:58;10.05;;;3.35;;
72761;SDS011;60886;55.034;73.150;2023-03-24T13:46:11;8.17;;;2.83;;
72761;SDS011;60886;55.034;73.150;2023-03-24T13:49:13;9.45;;;2.88;;
72761;SDS011;60886;55.034;73.150;2023-03-24T13:52:20;8.37;;;2.73;;
72761;SDS011;60886;55.034;73.150;2023-03-24T13:55:28;8.90;;;2.67;;
72761;SDS011;60886;55.034;73.150;2023-03-24T13:58:45;8.48;;;2.60;;
72761;SDS011;60886;55.034;73.150;2023-03-24T14:09:00;8.32;;;2.85;;
72761;SDS011;60886;55.034;73.150;2023-03-24T14:12:11;8.80;;;2.93;;
72761;SDS011;60886;55.034;73.150;2023-03-24T14:15:21;8.33;;;2.70;;
72761;SDS011;60886;55.034;73.150;2023-03-24T14:21:32;8.03;;;2.67;;
72761;SDS011;60886;55.034;73.150;2023-03-24T14:24:34;9.77;;;2.78;;
72761;SDS011;60886;55.034;73.150;2023-03-24T14:27:46;9.33;;;2.90;;
72761;SDS011;60886;55.034;73.150;2023-03-24T14:34:13;9.95;;;3.38;;
72761;SDS011;60886;55.034;73.150;2023-03-24T14:37:20;8.48;;;3.25;;
72761;SDS011;60886;55.034;73.150;2023-03-24T14:40:24;8.60;;;3.17;;
72761;SDS011;60886;55.034;73.150;2023-03-24T14:46:49;8.43;;;2.90;;
72761;SDS011;60886;55.034;73.150;2023-03-24T14:49:52;9.27;;;3.33;;
72761;SDS011;60886;55.034;73.150;2023-03-24T14:52:59;10.33;;;3.43;;
72761;SDS011;60886;55.034;73.150;2023-03-24T14:56:05;8.67;;;3.40;;
72761;SDS011;60886;55.034;73.150;2023-03-24T15:02:40;8.73;;;3.30;;
72761;SDS011;60886;55.034;73.150;2023-03-24T15:05:43;8.60;;;3.23;;
72761;SDS011;60886;55.034;73.150;2023-03-24T15:08:49;9.73;;;3.20;;
72761;SDS011;60886;55.034;73.150;2023-03-24T15:11:52;9.03;;;3.13;;
72761;SDS011;60886;55.034;73.150;2023-03-24T15:14:56;10.48;;;2.92;;
72761;SDS011;60886;55.034;73.150;2023-03-24T15:17:58;8.37;;;3.17;;
72761;SDS011;60886;55.034;73.150;2023-03-24T15:20:59;8.90;;;3.70;;
72761;SDS011;60886;55.034;73.150;2023-03-24T15:24:02;10.67;;;4.07;;
72761;SDS011;60886;55.034;73.150;2023-03-24T15:27:24;10.85;;;3.80;;
72761;SDS011;60886;55.034;73.150;2023-03-24T15:30:27;10.23;;;3.30;;
72761;SDS011;60886;55.034;73.150;2023-03-24T15:33:28;9.93;;;3.47;;
72761;SDS011;60886;55.034;73.150;2023-03-24T15:36:39;13.68;;;3.47;;
72761;SDS011;60886;55.034;73.150;2023-03-24T15:39:47;8.25;;;3.22;;
72761;SDS011;60886;55.034;73.150;2023-03-24T15:42:51;11.20;;;3.47;;
72761;SDS011;60886;55.034;73.150;2023-03-24T15:45:55;9.38;;;3.60;;
72761;SDS011;60886;55.034;73.150;2023-03-24T15:49:03;7.87;;;2.90;;
72761;SDS011;60886;55.034;73.150;2023-03-24T15:55:35;12.32;;;3.35;;
72761;SDS011;60886;55.034;73.150;2023-03-24T15:58:50;9.05;;;3.50;;
72761;SDS011;60886;55.034;73.150;2023-03-24T16:01:52;9.95;;;3.40;;
72761;SDS011;60886;55.034;73.150;2023-03-24T16:04:56;12.85;;;5.10;;
72761;SDS011;60886;55.034;73.150;2023-03-24T16:11:05;8.32;;;3.10;;
72761;SDS011;60886;55.034;73.150;2023-03-24T16:14:24;8.95;;;3.13;;
72761;SDS011;60886;55.034;73.150;2023-03-24T16:17:31;8.57;;;3.35;;
72761;SDS011;60886;55.034;73.150;2023-03-24T16:20:33;9.23;;;3.10;;
72761;SDS011;60886;55.034;73.150;2023-03-24T16:23:44;8.82;;;3.17;;
72761;SDS011;60886;55.034;73.150;2023-03-24T16:26:47;10.65;;;3.30;;
72761;SDS011;60886;55.034;73.150;2023-03-24T16:29:49;8.45;;;3.03;;
72761;SDS011;60886;55.034;73.150;2023-03-24T16:32:51;10.55;;;3.13;;
72761;SDS011;60886;55.034;73.150;2023-03-24T16:35:52;12.23;;;3.40;;
72761;SDS011;60886;55.034;73.150;2023-03-24T16:38:55;8.70;;;3.20;;
72761;SDS011;60886;55.034;73.150;2023-03-24T16:41:57;9.67;;;3.10;;
72761;SDS011;60886;55.034;73.150;2023-03-24T16:45:10;8.73;;;3.23;;
72761;SDS011;60886;55.034;73.150;2023-03-24T16:48:12;8.80;;;3.33;;
72761;SDS011;60886;55.034;73.150;2023-03-24T16:51:14;9.45;;;3.53;;
72761;SDS011;60886;55.034;73.150;2023-03-24T16:54:17;9.95;;;3.20;;
72761;SDS011;60886;55.034;73.150;2023-03-24T16:57:19;9.03;;;3.33;;
72761;SDS011;60886;55.034;73.150;2023-03-24T17:00:21;9.50;;;3.63;;
72761;SDS011;60886;55.034;73.150;2023-03-24T17:03:26;8.20;;;3.13;;
72761;SDS011;60886;55.034;73.150;2023-03-24T17:06:30;9.82;;;3.53;;
72761;SDS011;60886;55.034;73.150;2023-03-24T17:09:32;10.38;;;3.70;;
72761;SDS011;60886;55.034;73.150;2023-03-24T17:12:45;10.70;;;3.67;;
72761;SDS011;60886;55.034;73.150;2023-03-24T17:15:47;10.93;;;3.73;;
72761;SDS011;60886;55.034;73.150;2023-03-24T17:18:49;9.30;;;3.17;;
72761;SDS011;60886;55.034;73.150;2023-03-24T17:21:55;10.33;;;3.80;;
72761;SDS011;60886;55.034;73.150;2023-03-24T17:24:59;10.45;;;3.42;;
72761;SDS011;60886;55.034;73.150;2023-03-24T17:28:12;9.50;;;3.58;;
72761;SDS011;60886;55.034;73.150;2023-03-24T17:31:17;12.07;;;3.70;;
72761;SDS011;60886;55.034;73.150;2023-03-24T17:34:18;10.02;;;3.92;;
72761;SDS011;60886;55.034;73.150;2023-03-24T17:37:20;10.37;;;4.27;;
72761;SDS011;60886;55.034;73.150;2023-03-24T17:40:22;8.13;;;3.40;;
72761;SDS011;60886;55.034;73.150;2023-03-24T17:43:23;10.30;;;4.00;;
72761;SDS011;60886;55.034;73.150;2023-03-24T17:46:25;12.13;;;3.73;;
72761;SDS011;60886;55.034;73.150;2023-03-24T17:49:26;10.00;;;3.78;;
72761;SDS011;60886;55.034;73.150;2023-03-24T17:52:28;10.50;;;3.97;;
72761;SDS011;60886;55.034;73.150;2023-03-24T17:55:30;11.93;;;4.05;;
72761;SDS011;60886;55.034;73.150;2023-03-24T17:58:32;12.13;;;4.15;;
72761;SDS011;60886;55.034;73.150;2023-03-24T18:01:39;10.47;;;4.00;;
72761;SDS011;60886;55.034;73.150;2023-03-24T18:04:40;10.57;;;4.35;;
72761;SDS011;60886;55.034;73.150;2023-03-24T18:07:42;9.30;;;3.92;;
72761;SDS011;60886;55.034;73.150;2023-03-24T18:10:43;9.10;;;3.87;;
72761;SDS011;60886;55.034;73.150;2023-03-24T18:13:44;16.42;;;4.45;;
72761;SDS011;60886;55.034;73.150;2023-03-24T18:16:46;12.40;;;4.50;;
72761;SDS011;60886;55.034;73.150;2023-03-24T18:19:48;10.48;;;4.05;;
72761;SDS011;60886;55.034;73.150;2023-03-24T18:22:50;9.83;;;4.00;;
72761;SDS011;60886;55.034;73.150;2023-03-24T18:25:55;11.73;;;4.43;;
72761;SDS011;60886;55.034;73.150;2023-03-24T18:28:58;11.65;;;4.57;;
72761;SDS011;60886;55.034;73.150;2023-03-24T18:32:00;11.07;;;4.30;;
72761;SDS011;60886;55.034;73.150;2023-03-24T18:35:11;12.35;;;4.55;;
72761;SDS011;60886;55.034;73.150;2023-03-24T18:38:23;12.98;;;4.60;;
72761;SDS011;60886;55.034;73.150;2023-03-24T18:41:24;12.13;;;4.30;;
72761;SDS011;60886;55.034;73.150;2023-03-24T18:44:38;12.15;;;4.60;;
72761;SDS011;60886;55.034;73.150;2023-03-24T18:47:39;11.02;;;4.30;;
72761;SDS011;60886;55.034;73.150;2023-03-24T18:50:45;10.83;;;4.50;;
72761;SDS011;60886;55.034;73.150;2023-03-24T18:53:50;10.65;;;4.28;;
72761;SDS011;60886;55.034;73.150;2023-03-24T18:56:51;10.90;;;4.00;;
72761;SDS011;60886;55.034;73.150;2023-03-24T18:59:53;13.50;;;4.85;;
72761;SDS011;60886;55.034;73.150;2023-03-24T19:02:54;10.85;;;4.70;;
72761;SDS011;60886;55.034;73.150;2023-03-24T19:05:59;13.43;;;4.80;;
72761;SDS011;60886;55.034;73.150;2023-03-24T19:09:02;12.50;;;4.77;;
72761;SDS011;60886;55.034;73.150;2023-03-24T19:12:16;12.25;;;4.95;;
72761;SDS011;60886;55.034;73.150;2023-03-24T19:15:27;9.93;;;4.10;;
72761;SDS011;60886;55.034;73.150;2023-03-24T19:18:32;13.05;;;5.30;;
72761;SDS011;60886;55.034;73.150;2023-03-24T19:21:33;12.53;;;4.97;;
72761;SDS011;60886;55.034;73.150;2023-03-24T19:24:35;12.32;;;4.88;;
72761;SDS011;60886;55.034;73.150;2023-03-24T19:27:36;12.23;;;4.77;;
72761;SDS011;60886;55.034;73.150;2023-03-24T19:30:38;10.88;;;4.93;;
72761;SDS011;60886;55.034;73.150;2023-03-24T19:33:39;11.87;;;5.37;;
72761;SDS011;60886;55.034;73.150;2023-03-24T19:36:41;12.45;;;4.90;;
72761;SDS011;60886;55.034;73.150;2023-03-24T19:39:44;12.60;;;5.25;;
72761;SDS011;60886;55.034;73.150;2023-03-24T19:42:51;12.10;;;5.00;;
72761;SDS011;60886;55.034;73.150;2023-03-24T19:46:02;12.20;;;4.87;;
72761;SDS011;60886;55.034;73.150;2023-03-24T19:49:14;13.20;;;4.82;;
72761;SDS011;60886;55.034;73.150;2023-03-24T19:52:20;12.50;;;5.30;;
72761;SDS011;60886;55.034;73.150;2023-03-24T19:55:22;11.90;;;4.70;;
72761;SDS011;60886;55.034;73.150;2023-03-24T19:58:23;11.13;;;4.78;;
72761;SDS011;60886;55.034;73.150;2023-03-24T20:01:25;33.03;;;14.80;;
72761;SDS011;60886;55.034;73.150;2023-03-24T20:04:28;14.80;;;5.88;;
72761;SDS011;60886;55.034;73.150;2023-03-24T20:07:38;12.18;;;5.28;;
72761;SDS011;60886;55.034;73.150;2023-03-24T20:10:59;16.67;;;5.40;;
72761;SDS011;60886;55.034;73.150;2023-03-24T20:18:28;16.40;;;5.82;;
72761;SDS011;60886;55.034;73.150;2023-03-24T20:30:38;11.30;;;5.50;;
72761;SDS011;60886;55.034;73.150;2023-03-24T20:33:57;14.80;;;5.55;;
72761;SDS011;60886;55.034;73.150;2023-03-24T20:36:59;14.40;;;5.68;;
72761;SDS011;60886;55.034;73.150;2023-03-24T20:40:16;12.90;;;5.45;;
72761;SDS011;60886;55.034;73.150;2023-03-24T20:43:22;16.58;;;5.43;;
72761;SDS011;60886;55.034;73.150;2023-03-24T20:46:31;12.13;;;5.10;;
72761;SDS011;60886;55.034;73.150;2023-03-24T20:49:38;11.82;;;5.18;;
72761;SDS011;60886;55.034;73.150;2023-03-24T20:52:57;16.00;;;5.80;;